Time;durP1;ratioP1;P1;durP2;ratioP2;P2;SDS_P1;SDS_P2;PMS_P1;PMS_P2;Temp;Humidity;BMP_temperature;BMP_pressure;BME280_temperature;BME280_humidity;BME280_pressure;Samples;Min_cycle;Max_cycle;Signal;HPM_P1;HPM_P2
2023/01/17 08:12:24;;;;;;;;;20.50;19.00;;;;;1.75;100.00;98156.03;5836966;23;49850;-69
2023/01/17 08:14:50;;;;;;;;;17.75;15.00;;;;;2.84;100.00;98317.09;4929679;28;49925;-68
2023/01/17 08:17:17;;;;;;;;;22.25;20.50;;;;;2.40;100.00;98239.69;4930525;28;50030;-69
2023/01/17 08:19:43;;;;;;;;;16.75;12.50;;;;;3.27;100.00;98367.72;4932925;28;49893;-69
2023/01/17 08:22:10;;;;;;;;;23.00;20.25;;;;;3.37;100.00;98385.09;4932549;28;49949;-70
2023/01/17 08:24:36;;;;;;;;;12.00;12.00;;;;;2.78;100.00;98286.78;4930890;28;49692;-70
2023/01/17 08:27:02;;;;;;;;;26.50;20.00;;;;;2.85;100.00;98317.09;4931783;28;50291;-69
2023/01/17 08:29:28;;;;;;;;;21.25;20.00;;;;;2.76;100.00;98298.84;4931971;28;50429;-69
2023/01/17 08:31:53;;;;;;;;;25.50;20.25;;;;;2.90;100.00;98327.53;4932093;28;49634;-68
2023/01/17 08:34:19;;;;;;;;;24.00;22.00;;;;;3.30;100.00;98395.41;4932576;28;49582;-68
2023/01/17 08:36:46;;;;;;;;;24.00;17.50;;;;;3.09;100.00;98370.09;4931724;28;50036;-68
2023/01/17 08:39:12;;;;;;;;;22.75;20.00;;;;;3.54;100.00;98462.25;4931781;28;49906;-68
2023/01/17 08:41:38;;;;;;;;;12.25;8.50;;;;;3.33;100.00;98471.50;4931450;28;49931;-67
2023/01/17 08:44:03;;;;;;;;;20.75;19.75;;;;;2.05;100.00;98192.66;4931883;28;49787;-73
2023/01/17 08:46:28;;;;;;;;;24.25;21.50;;;;;3.35;100.00;98404.97;4932565;28;49946;-69
2023/01/17 08:48:57;;;;;;;;;22.50;19.25;;;;;3.45;100.00;98424.97;4932690;28;50123;-69
2023/01/17 08:51:25;;;;;;;;;33.00;24.75;;;;;2.97;100.00;98356.97;4942590;28;49901;-70
2023/01/17 08:53:50;;;;;;;;;30.00;24.75;;;;;3.71;100.00;98460.72;4947150;28;49707;-69
2023/01/17 08:56:16;;;;;;;;;24.25;18.00;;;;;3.73;100.00;98457.28;4947325;28;49728;-69
2023/01/17 08:58:41;;;;;;;;;27.50;21.25;;;;;3.48;100.00;98412.91;4947550;28;49526;-65
2023/01/17 09:01:07;;;;;;;;;24.25;15.75;;;;;3.52;100.00;98410.34;4948733;28;50948;-66
2023/01/17 09:03:33;;;;;;;;;31.75;26.50;;;;;3.62;100.00;98425.16;4947306;28;49640;-67
2023/01/17 09:06:01;;;;;;;;;27.25;23.75;;;;;3.80;100.00;98444.41;4947552;28;49738;-66
2023/01/17 09:08:26;;;;;;;;;21.50;18.00;;;;;2.15;100.00;98219.53;4938990;28;49636;-65
2023/01/17 09:10:52;;;;;;;;;29.50;20.00;;;;;3.53;100.00;98399.13;4946393;28;54829;-63
2023/01/17 09:13:17;;;;;;;;;23.50;20.25;;;;;3.00;100.00;98328.53;4947841;28;49554;-65
2023/01/17 09:15:42;;;;;;;;;28.50;24.00;;;;;3.53;100.00;98431.97;4933255;28;49835;-66
2023/01/17 09:18:08;;;;;;;;;32.00;24.75;;;;;3.03;100.00;98308.69;4931540;28;50024;-69
2023/01/17 09:20:38;;;;;;;;;28.25;22.25;;;;;3.37;100.00;98379.91;4931297;28;50617;-63
2023/01/17 09:23:06;;;;;;;;;23.00;23.00;;;;;3.98;100.00;98465.34;4933015;28;49698;-68
2023/01/17 09:25:43;;;;;;;;;;;;;;;;;;;;;
2023/01/17 09:28:15;;;;;;;;;22.50;22.50;;;;;4.00;100.00;98440.28;4922473;28;69219;-68
2023/01/17 09:30:41;;;;;;;;;27.75;22.25;;;;;4.22;100.00;98455.19;4928634;28;49788;-68
2023/01/17 09:33:11;;;;;;;;;27.50;23.75;;;;;4.31;100.00;98457.00;4929398;28;49883;-68
2023/01/17 09:35:39;;;;;;;;;31.25;25.25;;;;;4.05;100.00;98393.56;4932362;28;50123;-69
2023/01/17 09:38:33;;;;;;;;;26.75;24.00;;;;;4.47;100.00;98448.50;4931160;28;49996;-68
2023/01/17 09:41:44;;;;;;;;;38.50;31.75;;;;;4.30;100.00;98411.13;4928586;28;50374;-70
2023/01/17 09:44:32;;;;;;;;;29.50;23.50;;;;;4.60;100.00;98444.25;4932696;28;49896;-67
2023/01/17 09:47:06;;;;;;;;;22.75;22.00;;;;;4.22;100.00;98385.06;4932740;28;50073;-68
2023/01/17 09:49:40;;;;;;;;;27.25;24.25;;;;;4.51;100.00;98423.41;4932912;28;49744;-67
2023/01/17 09:52:08;;;;;;;;;20.50;16.50;;;;;4.55;100.00;98425.19;4932513;28;51673;-69
2023/01/17 09:54:37;;;;;;;;;26.25;21.75;;;;;4.23;100.00;98358.25;4932770;28;49793;-69
2023/01/17 09:57:20;;;;;;;;;37.00;27.75;;;;;4.87;100.00;98459.19;4935037;28;49608;-76
2023/01/17 10:00:04;;;;;;;;;27.50;21.00;;;;;4.97;100.00;98462.72;4932938;28;49735;-70
2023/01/17 10:03:16;;;;;;;;;26.50;24.50;;;;;5.02;100.00;98463.59;4938604;28;50874;-71
2023/01/17 10:06:14;;;;;;;;;10.00;5.00;;;;;4.55;100.00;98373.22;4946440;28;50136;-74
2023/01/17 10:09:13;;;;;;;;;24.50;22.50;;;;;4.88;100.00;98427.13;4931792;28;49844;-72
2023/01/17 10:11:46;;;;;;;;;22.00;18.00;;;;;5.16;100.00;98475.81;4935875;28;49867;-71
2023/01/17 10:14:47;;;;;;;;;26.50;23.00;;;;;5.14;100.00;98477.56;4930459;28;51425;-75
2023/01/17 10:17:19;;;;;;;;;25.00;17.50;;;;;5.37;100.00;98476.81;4943675;28;49870;-71
2023/01/17 10:20:06;;;;;;;;;21.50;19.25;;;;;5.46;100.00;98474.25;4933652;28;50015;-72
2023/01/17 10:23:02;;;;;;;;;25.00;19.75;;;;;5.55;100.00;98476.03;4931794;28;49991;-72
2023/01/17 10:25:46;;;;;;;;;21.25;18.50;;;;;4.94;100.00;98375.16;4908509;28;51153;-70
2023/01/17 10:28:16;;;;;;;;;20.00;16.00;;;;;5.22;100.00;98430.78;4935459;28;49882;-71
2023/01/17 10:30:48;;;;;;;;;16.00;16.00;;;;;5.34;100.00;98432.56;4931942;28;50275;-71
2023/01/17 10:33:18;;;;;;;;;21.50;18.00;;;;;5.56;100.00;98473.41;4931747;28;49846;-71
2023/01/17 10:35:53;;;;;;;;;18.25;14.75;;;;;5.55;100.00;98468.22;4930397;28;52562;-71
2023/01/17 10:38:22;;;;;;;;;14.00;13.50;;;;;5.36;100.00;98426.50;4932300;28;49802;-70
2023/01/17 10:40:56;;;;;;;;;17.25;13.75;;;;;5.40;100.00;98430.88;4928319;28;49946;-70
2023/01/17 10:43:33;;;;;;;;;16.00;16.00;;;;;5.42;100.00;98438.69;4927123;28;50271;-66
2023/01/17 10:45:59;;;;;;;;;13.00;13.00;;;;;5.51;100.00;98446.53;4930166;28;50575;-71
2023/01/17 10:48:40;;;;;;;;;22.25;19.25;;;;;5.63;100.00;98459.56;4932625;28;49859;-71
2023/01/17 10:51:11;;;;;;;;;17.00;17.00;;;;;5.73;100.00;98466.53;4932159;28;49654;-72
2023/01/17 10:54:07;;;;;;;;;28.75;19.75;;;;;5.56;100.00;98441.31;4931935;28;50309;-74
2023/01/17 10:56:33;;;;;;;;;20.50;14.25;;;;;5.63;100.00;98450.91;4927006;28;51426;-72
2023/01/17 10:59:26;;;;;;;;;17.75;14.00;;;;;5.70;100.00;98458.75;4934476;28;49877;-73
2023/01/17 11:01:51;;;;;;;;;17.25;14.50;;;;;5.59;100.00;98429.19;4931856;28;49997;-73
2023/01/17 11:04:32;;;;;;;;;16.75;16.75;;;;;5.70;100.00;98452.66;4929971;28;49984;-73
2023/01/17 11:07:14;;;;;;;;;12.75;12.75;;;;;5.70;100.00;98450.94;4931385;28;50585;-74
2023/01/17 11:09:44;;;;;;;;;22.25;20.50;;;;;5.65;100.00;98418.78;4932319;28;49637;-74
2023/01/17 11:12:28;;;;;;;;;16.75;14.50;;;;;5.80;100.00;98440.53;4931791;28;49806;-71
2023/01/17 11:15:08;;;;;;;;;16.50;14.00;;;;;5.67;100.00;98431.81;4932198;28;49929;-75
2023/01/17 11:17:36;;;;;;;;;26.75;20.25;;;;;5.81;100.00;98448.34;4932349;28;49697;-73
2023/01/17 11:20:06;;;;;;;;;57.50;43.75;;;;;5.87;100.00;98439.69;4925954;28;49856;-72
2023/01/17 11:22:32;;;;;;;;;26.50;24.25;;;;;5.95;100.00;98433.66;4935570;28;49745;-76
2023/01/17 11:24:59;;;;;;;;;20.25;17.75;;;;;5.77;100.00;98394.53;4934935;28;49778;-72
2023/01/17 11:27:29;;;;;;;;;17.00;17.00;;;;;5.96;100.00;98426.72;4939500;28;50023;-74
2023/01/17 11:30:03;;;;;;;;;16.50;15.75;;;;;6.03;100.00;98431.06;4944801;28;49732;-74
2023/01/17 11:32:33;;;;;;;;;19.00;15.00;;;;;5.84;100.00;98398.00;4936272;28;49796;-74
2023/01/17 11:35:19;;;;;;;;;15.50;15.50;;;;;5.97;100.00;98431.03;4940690;28;49879;-75
2023/01/17 11:37:56;;;;;;;;;16.00;15.00;;;;;5.67;100.00;98366.72;4936033;28;51493;-75
2023/01/17 11:40:26;;;;;;;;;15.25;15.25;;;;;6.00;100.00;98431.06;4933657;28;49952;-77
2023/01/17 11:43:22;;;;;;;;;14.50;11.50;;;;;5.72;100.00;98399.72;4935873;28;49771;-73
2023/01/17 11:46:12;;;;;;;;;18.50;15.50;;;;;5.86;100.00;98437.94;4936706;28;49785;-72
2023/01/17 11:48:38;;;;;;;;;12.25;11.50;;;;;5.69;100.00;98411.84;4934369;28;50919;-75
2023/01/17 11:51:17;;;;;;;;;17.75;13.75;;;;;5.68;100.00;98392.75;4936992;28;49923;-75
2023/01/17 11:53:47;;;;;;;;;16.75;14.25;;;;;5.58;100.00;98375.38;4934764;28;49729;-74
2023/01/17 11:56:31;;;;;;;;;23.50;15.00;;;;;5.77;100.00;98412.75;4928437;28;49657;-74
2023/01/17 11:59:36;;;;;;;;;19.25;17.25;;;;;5.85;100.00;98411.03;4930549;28;49982;-75
2023/01/17 12:02:38;;;;;;;;;15.25;11.25;;;;;5.73;100.00;98393.66;4934639;28;49874;-75
2023/01/17 12:05:30;;;;;;;;;14.00;13.25;;;;;5.78;100.00;98396.25;4934537;28;49711;-77
2023/01/17 12:08:24;;;;;;;;;16.75;13.00;;;;;5.71;100.00;98364.16;4934725;28;49570;-75
2023/01/17 12:11:08;;;;;;;;;9.00;9.00;;;;;5.90;100.00;98395.44;4933974;28;49793;-76
2023/01/17 12:14:00;;;;;;;;;16.75;11.50;;;;;5.86;100.00;98410.16;4932851;28;49979;-74
2023/01/17 12:17:16;;;;;;;;;15.00;13.00;;;;;5.71;100.00;98399.75;4932834;28;50024;-74
2023/01/17 12:19:48;;;;;;;;;15.25;13.75;;;;;5.51;100.00;98365.84;4877145;28;49956;-74
2023/01/17 12:22:43;;;;;;;;;10.00;7.25;;;;;4.37;100.00;98196.44;4922294;28;51044;-74
2023/01/17 12:25:13;;;;;;;;;15.25;14.25;;;;;5.74;100.00;98403.19;4933969;28;49729;-74
2023/01/17 12:28:08;;;;;;;;;15.00;13.00;;;;;5.74;100.00;98405.81;4933844;28;49881;-74
2023/01/17 12:31:14;;;;;;;;;18.50;11.50;;;;;5.20;100.00;98312.84;4933974;28;49751;-75
2023/01/17 12:34:12;;;;;;;;;10.75;10.75;;;;;4.55;100.00;98202.59;4933939;28;50059;-74
2023/01/17 12:37:04;;;;;;;;;9.00;8.75;;;;;4.41;100.00;98214.63;4934060;28;49926;-74
2023/01/17 12:39:37;;;;;;;;;13.00;9.50;;;;;5.68;100.00;98404.91;4934017;28;49822;-74
2023/01/17 12:42:03;;;;;;;;;16.50;10.75;;;;;5.59;100.00;98404.88;4933738;28;49707;-75
2023/01/17 12:44:51;;;;;;;;;13.75;10.25;;;;;4.85;100.00;98268.53;4933816;28;50899;-74
2023/01/17 12:47:19;;;;;;;;;14.25;11.25;;;;;5.64;100.00;98403.19;4928160;28;49992;-74
2023/01/17 12:49:54;;;;;;;;;10.50;10.00;;;;;4.05;100.00;98159.94;4933912;28;49858;-74
2023/01/17 12:52:43;;;;;;;;;10.00;10.00;;;;;5.71;100.00;98392.78;4933923;28;49768;-74
2023/01/17 12:55:22;;;;;;;;;17.00;15.00;;;;;5.65;100.00;98411.00;4933553;28;49722;-75
2023/01/17 12:57:57;;;;;;;;;12.75;10.00;;;;;5.58;100.00;98371.91;4933255;28;49971;-75
2023/01/17 13:00:28;;;;;;;;;9.00;6.00;;;;;5.66;100.00;98385.81;4928496;28;49753;-74
2023/01/17 13:03:03;;;;;;;;;12.25;10.00;;;;;5.69;100.00;98396.22;4933834;28;49919;-74
2023/01/17 13:05:35;;;;;;;;;12.50;11.00;;;;;4.99;100.00;98263.38;4933469;28;49823;-74
2023/01/17 13:08:11;;;;;;;;;7.25;5.00;;;;;4.43;100.00;98181.75;4933638;28;49890;-75
2023/01/17 13:10:50;;;;;;;;;11.25;10.50;;;;;5.14;100.00;98316.31;4933613;28;49811;-74
2023/01/17 13:13:25;;;;;;;;;10.50;10.25;;;;;5.34;100.00;98349.31;4933061;28;50873;-75
2023/01/17 13:15:54;;;;;;;;;17.75;9.50;;;;;4.88;100.00;98264.22;4927024;28;50213;-75
2023/01/17 13:18:24;;;;;;;;;10.50;7.75;;;;;4.25;100.00;98177.38;4927383;28;49932;-75
2023/01/17 13:21:24;;;;;;;;;15.25;10.25;;;;;5.57;100.00;98389.28;4932118;28;49903;-75
2023/01/17 13:24:00;;;;;;;;;12.50;11.25;;;;;5.58;100.00;98390.13;4933501;28;50022;-75
2023/01/17 13:26:35;;;;;;;;;6.75;6.00;;;;;5.54;100.00;98407.50;4931420;28;51527;-74
2023/01/17 13:29:26;;;;;;;;;9.50;8.00;;;;;4.41;100.00;98232.81;4933403;28;49931;-75
2023/01/17 13:32:00;;;;;;;;;13.75;11.25;;;;;4.06;100.00;98198.03;4931846;28;49861;-75
2023/01/17 13:34:36;;;;;;;;;12.75;11.00;;;;;5.06;100.00;98309.34;4933397;28;49678;-74
2023/01/17 13:37:27;;;;;;;;;11.25;9.25;;;;;4.91;100.00;98289.34;4933006;28;50720;-74
2023/01/17 13:40:18;;;;;;;;;10.25;10.25;;;;;5.21;100.00;98351.03;4917170;28;49962;-75
2023/01/17 13:42:56;;;;;;;;;16.50;10.00;;;;;5.43;100.00;98385.78;4913369;28;49884;-74
2023/01/17 13:45:32;;;;;;;;;13.50;12.75;;;;;5.33;100.00;98358.84;4931462;28;49894;-74
2023/01/17 13:48:16;;;;;;;;;17.50;12.25;;;;;5.53;100.00;98399.69;4932741;28;50738;-74
2023/01/17 13:51:01;;;;;;;;;10.00;10.00;;;;;5.57;100.00;98394.47;4932756;28;49943;-74
2023/01/17 13:53:33;;;;;;;;;13.00;10.75;;;;;5.25;100.00;98347.56;4932879;28;49756;-75
2023/01/17 13:56:04;;;;;;;;;14.25;14.25;;;;;5.51;100.00;98401.41;4932692;28;49827;-75
2023/01/17 13:58:50;;;;;;;;;14.75;12.75;;;;;5.46;100.00;98385.78;4932725;28;49905;-75
2023/01/17 14:01:47;;;;;;;;;10.75;9.50;;;;;5.36;100.00;98371.88;4932674;28;49844;-74
2023/01/17 14:04:13;;;;;;;;;13.75;13.75;;;;;5.38;100.00;98367.53;4932836;28;49632;-74
2023/01/17 14:06:43;;;;;;;;;9.00;9.00;;;;;5.65;100.00;98400.56;4932846;28;49720;-75
2023/01/17 14:09:11;;;;;;;;;13.75;10.25;;;;;5.76;100.00;98411.00;4932364;28;49888;-74
2023/01/17 14:11:57;;;;;;;;;14.50;13.50;;;;;5.80;100.00;98411.91;4925826;28;49872;-74
2023/01/17 14:14:41;;;;;;;;;9.75;9.00;;;;;5.74;100.00;98416.22;4932478;28;49618;-74
2023/01/17 14:17:24;;;;;;;;;10.00;8.50;;;;;5.73;100.00;98419.69;4932699;28;49784;-74
2023/01/17 14:19:52;;;;;;;;;10.00;10.00;;;;;4.44;100.00;98214.69;4932443;28;49939;-74
2023/01/17 14:22:17;;;;;;;;;13.25;10.00;;;;;5.70;100.00;98427.50;4932556;28;49689;-74
2023/01/17 14:25:18;;;;;;;;;9.25;8.50;;;;;5.66;100.00;98432.69;4931079;28;49729;-74
2023/01/17 14:27:50;;;;;;;;;11.50;9.75;;;;;5.21;100.00;98379.63;4932157;28;49733;-74
2023/01/17 14:30:30;;;;;;;;;10.75;9.00;;;;;5.49;100.00;98434.34;4931977;28;50822;-74
2023/01/17 14:33:11;;;;;;;;;7.75;7.75;;;;;3.60;100.00;98123.34;4932295;28;49814;-74
2023/01/17 14:35:39;;;;;;;;;9.00;8.50;;;;;5.60;100.00;98443.09;4927591;28;50185;-74
2023/01/17 14:38:25;;;;;;;;;9.00;9.00;;;;;5.63;100.00;98443.09;4931057;28;50095;-74
2023/01/17 14:40:53;;;;;;;;;7.50;7.50;;;;;5.62;100.00;98442.22;4931679;28;49910;-75
2023/01/17 14:43:20;;;;;;;;;14.50;13.75;;;;;5.40;100.00;98411.75;4932098;28;49599;-74
2023/01/17 14:45:46;;;;;;;;;7.00;7.00;;;;;4.21;100.00;98224.06;4932137;28;49782;-75
2023/01/17 14:48:19;;;;;;;;;15.50;10.50;;;;;5.23;100.00;98403.03;4932202;28;50033;-75
2023/01/17 14:50:47;;;;;;;;;14.25;13.00;;;;;5.36;100.00;98459.44;4931887;28;49840;-74
2023/01/17 14:53:13;;;;;;;;;10.50;8.00;;;;;5.38;100.00;98458.59;4931978;28;49980;-74
2023/01/17 14:55:47;;;;;;;;;7.50;7.25;;;;;5.34;100.00;98463.78;4931970;28;49815;-74
2023/01/17 14:58:19;;;;;;;;;10.00;10.00;;;;;4.24;100.00;98307.16;4932294;28;50208;-74
2023/01/17 15:00:45;;;;;;;;;12.50;9.00;;;;;4.39;100.00;98325.47;4931712;28;50840;-75
2023/01/17 15:03:12;;;;;;;;;14.00;11.75;;;;;4.50;100.00;98334.19;4930416;28;49708;-74
2023/01/17 15:05:44;;;;;;;;;11.00;11.00;;;;;4.29;100.00;98311.56;4931817;28;49886;-75
2023/01/17 15:08:13;;;;;;;;;11.25;9.75;;;;;4.89;100.00;98414.13;4932034;28;49609;-74
2023/01/17 15:10:48;;;;;;;;;8.75;7.75;;;;;4.42;100.00;98355.78;4931808;28;51145;-74
2023/01/17 15:13:17;;;;;;;;;13.50;8.00;;;;;4.72;100.00;98430.47;4931636;28;49890;-75
2023/01/17 15:15:42;;;;;;;;;11.75;9.50;;;;;4.94;100.00;98450.56;4931899;28;49741;-74
2023/01/17 15:18:17;;;;;;;;;9.50;9.00;;;;;4.51;100.00;98361.91;4931725;28;49672;-74
2023/01/17 15:20:50;;;;;;;;;2.50;2.50;;;;;4.33;100.00;98343.59;4931573;28;51150;-75
2023/01/17 15:23:21;;;;;;;;;11.25;9.50;;;;;5.12;100.00;98522.63;4931532;28;49758;-75
2023/01/17 15:25:52;;;;;;;;;10.25;10.25;;;;;5.08;100.00;98503.50;4931478;28;49845;-75
2023/01/17 15:28:18;;;;;;;;;10.00;6.75;;;;;3.44;100.00;98259.84;4931860;28;49775;-75
2023/01/17 15:31:07;;;;;;;;;10.50;10.00;;;;;3.92;100.00;98335.50;4931370;28;49805;-74
2023/01/17 15:33:34;;;;;;;;;12.75;9.75;;;;;3.58;100.00;98249.59;4931588;28;50138;-75
2023/01/17 15:36:03;;;;;;;;;12.50;9.50;;;;;3.90;100.00;98319.03;4931756;28;49925;-75
2023/01/17 15:38:29;;;;;;;;;11.75;10.25;;;;;3.53;100.00;98292.78;4931625;28;49790;-75
2023/01/17 15:40:54;;;;;;;;;18.50;11.25;;;;;3.68;100.00;98266.97;4930884;28;50367;-74
2023/01/17 15:43:34;;;;;;;;;24.25;20.00;;;;;3.97;100.00;98337.28;4931550;28;49700;-75
2023/01/17 15:46:01;;;;;;;;;13.75;12.75;;;;;4.57;100.00;98431.25;4931570;28;49838;-75
2023/01/17 15:48:39;;;;;;;;;16.25;15.25;;;;;4.97;100.00;98496.50;4931601;28;49913;-74
2023/01/17 15:51:06;;;;;;;;;10.00;10.00;;;;;4.72;100.00;98474.66;4931206;28;49972;-75
2023/01/17 15:53:37;;;;;;;;;10.00;6.00;;;;;4.87;100.00;98505.97;4931323;28;49935;-72
2023/01/17 15:56:20;;;;;;;;;10.75;10.50;;;;;4.89;100.00;98499.03;4930869;28;49851;-76
2023/01/17 15:58:49;;;;;;;;;17.50;12.75;;;;;4.92;100.00;98525.06;4931517;28;49847;-73
2023/01/17 16:01:16;;;;;;;;;12.25;8.50;;;;;3.54;100.00;98275.47;4931068;28;50736;-74
2023/01/17 16:03:52;;;;;;;;;10.00;9.00;;;;;4.52;100.00;98433.78;4931339;28;49649;-73
2023/01/17 16:06:36;;;;;;;;;17.25;13.75;;;;;4.69;100.00;98466.84;4931215;28;49734;-72
2023/01/17 16:09:03;;;;;;;;;9.50;9.50;;;;;4.93;100.00;98512.97;4934632;28;49955;-73
2023/01/17 16:11:28;;;;;;;;;12.75;9.25;;;;;3.76;100.00;98344.00;4934082;28;51102;-73
2023/01/17 16:13:54;;;;;;;;;12.00;7.25;;;;;3.72;100.00;98364.72;4934174;28;49783;-72
2023/01/17 16:16:22;;;;;;;;;17.25;17.25;;;;;4.63;100.00;98492.75;4934109;28;49774;-72
2023/01/17 16:18:55;;;;;;;;;13.00;10.00;;;;;4.88;100.00;98531.09;4934612;28;49945;-73
2023/01/17 16:21:24;;;;;;;;;16.00;12.00;;;;;4.19;100.00;98459.50;4934197;28;49874;-73
2023/01/17 16:23:50;;;;;;;;;11.00;9.50;;;;;4.71;100.00;98496.31;4934309;28;49632;-73
2023/01/17 16:26:16;;;;;;;;;13.00;12.25;;;;;4.32;100.00;98454.41;4934003;28;49701;-74
2023/01/17 16:28:41;;;;;;;;;14.75;11.50;;;;;4.50;100.00;98490.06;4934409;28;49801;-73
2023/01/17 16:31:07;;;;;;;;;11.25;11.25;;;;;4.53;100.00;98502.22;4927645;28;50549;-73
2023/01/17 16:33:32;;;;;;;;;11.50;10.25;;;;;4.06;100.00;98429.09;4933958;28;49934;-70
2023/01/17 16:35:58;;;;;;;;;12.25;9.50;;;;;3.04;100.00;98283.63;4934037;28;49636;-73
2023/01/17 16:38:23;;;;;;;;;12.50;11.50;;;;;4.58;100.00;98498.81;4934254;28;49648;-73
2023/01/17 16:40:48;;;;;;;;;18.00;11.00;;;;;4.97;100.00;98574.50;4933014;28;52224;-72
2023/01/17 16:43:18;;;;;;;;;10.00;10.00;;;;;4.27;100.00;98497.66;4933802;28;49756;-73
2023/01/17 16:45:50;;;;;;;;;13.75;13.00;;;;;3.89;100.00;98403.84;4933856;28;49974;-74
2023/01/17 16:48:16;;;;;;;;;9.75;9.75;;;;;3.79;100.00;98401.13;4933948;28;49878;-73
2023/01/17 16:50:47;;;;;;;;;14.50;12.75;;;;;4.74;100.00;98553.53;4933489;28;49894;-73
2023/01/17 16:53:20;;;;;;;;;14.00;13.00;;;;;4.46;100.00;98510.84;4933542;28;49920;-74
2023/01/17 16:55:48;;;;;;;;;13.75;13.25;;;;;4.77;100.00;98570.00;4933485;28;49697;-73
2023/01/17 16:58:14;;;;;;;;;17.50;14.75;;;;;4.49;100.00;98524.72;4927652;28;49938;-73
2023/01/17 17:00:39;;;;;;;;;15.75;12.75;;;;;4.47;100.00;98523.84;4927341;28;50082;-73
2023/01/17 17:03:06;;;;;;;;;13.75;9.25;;;;;3.14;100.00;98316.59;4933572;28;49847;-73
2023/01/17 17:05:32;;;;;;;;;17.25;13.50;;;;;4.83;100.00;98590.00;4933640;28;49967;-74
2023/01/17 17:07:59;;;;;;;;;16.75;14.50;;;;;4.14;100.00;98492.31;4933731;28;49882;-75
2023/01/17 17:10:26;;;;;;;;;15.25;14.00;;;;;3.63;100.00;98397.50;4933508;28;49828;-76
2023/01/17 17:12:51;;;;;;;;;14.25;11.75;;;;;4.36;100.00;98498.63;4932878;28;49722;-72
2023/01/17 17:15:17;;;;;;;;;19.25;17.50;;;;;4.83;100.00;98590.00;4933345;28;49799;-70
2023/01/17 17:17:42;;;;;;;;;20.25;14.00;;;;;4.66;100.00;98562.97;4933362;28;50053;-68
2023/01/17 17:20:11;;;;;;;;;13.00;13.00;;;;;4.87;100.00;98605.63;4932711;28;49862;-69
2023/01/17 17:22:36;;;;;;;;;13.50;12.75;;;;;4.89;100.00;98613.44;4933294;28;50149;-69
2023/01/17 17:25:04;;;;;;;;;15.50;14.50;;;;;4.88;100.00;98614.28;4933255;28;49953;-68
2023/01/17 17:27:29;;;;;;;;;20.00;16.00;;;;;4.84;100.00;98630.75;4933181;28;49888;-67
2023/01/17 17:29:54;;;;;;;;;12.00;11.75;;;;;4.60;100.00;98600.16;4932945;28;49690;-68
2023/01/17 17:32:20;;;;;;;;;18.25;15.00;;;;;4.73;100.00;98634.94;4932724;28;63211;-67
2023/01/17 17:34:45;;;;;;;;;18.00;12.25;;;;;4.51;100.00;98603.53;4933319;28;49560;-67
2023/01/17 17:37:13;;;;;;;;;13.00;13.00;;;;;4.43;100.00;98584.41;4933334;28;49916;-67
2023/01/17 17:39:38;;;;;;;;;17.75;14.50;;;;;4.68;100.00;98627.09;4932960;28;50716;-67
2023/01/17 17:42:07;;;;;;;;;18.00;18.00;;;;;4.63;100.00;98626.16;4932723;28;49718;-67
2023/01/17 17:44:32;;;;;;;;;12.50;12.50;;;;;4.68;100.00;98618.44;4933235;28;49810;-68
2023/01/17 17:46:57;;;;;;;;;23.50;20.50;;;;;4.74;100.00;98631.50;4931724;28;49739;-68
2023/01/17 17:49:23;;;;;;;;;15.00;13.50;;;;;4.60;100.00;98608.81;4932774;28;49818;-67
2023/01/17 17:51:48;;;;;;;;;20.00;13.50;;;;;4.81;100.00;98630.69;4931786;28;49905;-67
2023/01/17 17:54:15;;;;;;;;;11.00;11.00;;;;;4.75;100.00;98643.66;4932735;28;49742;-69
2023/01/17 17:56:45;;;;;;;;;11.00;11.00;;;;;4.88;100.00;98659.38;4932714;28;49837;-71
2023/01/17 17:59:13;;;;;;;;;14.00;9.75;;;;;4.87;100.00;98665.41;4932743;28;49917;-70
2023/01/17 18:01:40;;;;;;;;;14.00;11.00;;;;;4.20;100.00;98570.31;4932769;28;49685;-70
2023/01/17 18:04:06;;;;;;;;;11.75;11.75;;;;;4.78;100.00;98669.66;4932599;28;49688;-70
2023/01/17 18:06:33;;;;;;;;;17.75;14.00;;;;;4.79;100.00;98676.59;4932906;28;49668;-72
2023/01/17 18:08:59;;;;;;;;;16.50;15.50;;;;;4.76;100.00;98674.84;4932736;28;50682;-72
2023/01/17 18:11:25;;;;;;;;;13.50;12.75;;;;;4.66;100.00;98656.53;4932046;28;49701;-66
2023/01/17 18:13:53;;;;;;;;;26.25;25.50;;;;;4.69;100.00;98661.75;4932548;28;49807;-72
2023/01/17 18:16:25;;;;;;;;;11.75;9.50;;;;;4.69;100.00;98675.63;4926830;28;49846;-64
2023/01/17 18:18:53;;;;;;;;;12.25;10.25;;;;;4.62;100.00;98679.00;4926524;28;49825;-72
2023/01/17 18:21:22;;;;;;;;;11.50;11.50;;;;;4.55;100.00;98698.00;4932520;28;49575;-75
2023/01/17 18:23:50;;;;;;;;;17.50;17.00;;;;;4.54;100.00;98680.69;4931495;28;49932;-72
2023/01/17 18:26:18;;;;;;;;;16.00;8.50;;;;;4.63;100.00;98711.06;4932551;28;50548;-71
2023/01/17 18:28:44;;;;;;;;;17.25;13.75;;;;;4.47;100.00;98682.31;4931291;28;51871;-69
2023/01/17 18:31:09;;;;;;;;;9.75;9.75;;;;;4.50;100.00;98689.25;4932143;28;50047;-68
2023/01/17 18:33:37;;;;;;;;;9.50;8.50;;;;;4.49;100.00;98708.31;4932392;28;49643;-67
2023/01/17 18:36:04;;;;;;;;;10.00;8.00;;;;;4.35;100.00;98681.31;4926330;28;50026;-71
2023/01/17 18:38:36;;;;;;;;;16.50;11.50;;;;;4.41;100.00;98695.22;4925845;28;51020;-67
2023/01/17 18:41:07;;;;;;;;;9.75;9.25;;;;;4.36;100.00;98690.84;4931786;28;49711;-71
2023/01/17 18:43:32;;;;;;;;;12.25;8.75;;;;;4.40;100.00;98703.88;4931016;28;49932;-69
2023/01/17 18:45:58;;;;;;;;;15.50;15.50;;;;;4.48;100.00;98719.56;4932472;28;49712;-68
2023/01/17 18:48:23;;;;;;;;;15.75;13.25;;;;;4.47;100.00;98726.47;4931976;28;49874;-67
2023/01/17 18:50:57;;;;;;;;;22.00;16.00;;;;;4.31;100.00;98715.00;4925592;28;54741;-67
2023/01/17 18:53:24;;;;;;;;;12.50;11.00;;;;;4.13;100.00;98687.94;4930595;28;49892;-67
2023/01/17 18:56:00;;;;;;;;;12.25;12.25;;;;;2.76;100.00;98454.31;4930446;28;50009;-67
2023/01/17 18:58:28;;;;;;;;;17.50;13.75;;;;;4.52;100.00;98744.72;4931688;28;49936;-67
2023/01/17 19:00:54;;;;;;;;;14.25;14.25;;;;;4.05;100.00;98669.66;4937936;28;49749;-66
2023/01/17 19:03:27;;;;;;;;;14.50;12.25;;;;;4.43;100.00;98748.06;4932491;28;49966;-68
2023/01/17 19:05:52;;;;;;;;;19.00;18.00;;;;;4.13;100.00;98699.19;4930668;28;49803;-66
2023/01/17 19:08:18;;;;;;;;;17.00;15.75;;;;;4.32;100.00;98741.88;4930498;28;52588;-67
2023/01/17 19:10:43;;;;;;;;;13.25;13.25;;;;;4.27;100.00;98722.75;4931105;28;54192;-67
2023/01/17 19:13:10;;;;;;;;;23.50;18.25;;;;;4.09;100.00;98688.75;4931463;28;49844;-67
2023/01/17 19:15:35;;;;;;;;;26.25;20.25;;;;;4.41;100.00;98762.75;4931878;28;49819;-65
2023/01/17 19:18:02;;;;;;;;;18.75;17.25;;;;;4.03;100.00;98702.50;4931412;28;50847;-63
2023/01/17 19:20:28;;;;;;;;;23.00;20.50;;;;;4.12;100.00;98726.00;4925522;28;49733;-65
2023/01/17 19:22:53;;;;;;;;;22.00;21.25;;;;;4.12;100.00;98715.63;4931659;28;49732;-63
2023/01/17 19:25:19;;;;;;;;;19.50;16.25;;;;;4.16;100.00;98720.03;4931239;28;58499;-63
2023/01/17 19:27:45;;;;;;;;;23.00;21.00;;;;;4.35;100.00;98777.41;4931049;28;50669;-63
2023/01/17 19:30:11;;;;;;;;;23.25;20.50;;;;;3.98;100.00;98715.44;4931509;28;49870;-62
2023/01/17 19:32:36;;;;;;;;;26.50;20.00;;;;;3.08;100.00;98624.97;4931455;28;49934;-68
2023/01/17 19:35:01;;;;;;;;;26.00;22.00;;;;;4.18;100.00;98767.66;4931651;28;49730;-62
2023/01/17 19:37:27;;;;;;;;;17.25;13.00;;;;;4.05;100.00;98765.72;4929914;28;51198;-63
2023/01/17 19:39:52;;;;;;;;;20.00;17.25;;;;;3.22;100.00;98662.38;4931557;28;50067;-64
2023/01/17 19:42:19;;;;;;;;;20.00;15.00;;;;;3.26;100.00;98652.91;4932484;28;50002;-62
2023/01/17 19:44:45;;;;;;;;;17.25;17.25;;;;;3.82;100.00;98748.94;4934908;28;49935;-68
2023/01/17 19:47:10;;;;;;;;;30.50;21.25;;;;;3.49;100.00;98708.66;4937800;28;51039;-63
2023/01/17 19:49:38;;;;;;;;;17.25;10.75;;;;;3.93;100.00;98787.19;4934776;28;49876;-63
2023/01/17 19:52:04;;;;;;;;;22.75;17.00;;;;;4.06;100.00;98813.34;4934638;28;49957;-62
2023/01/17 19:54:30;;;;;;;;;22.00;19.25;;;;;3.88;100.00;98788.84;4934747;28;49794;-64
2023/01/17 19:56:55;;;;;;;;;20.75;16.75;;;;;4.06;100.00;98850.56;4933967;28;51162;-69
2023/01/17 19:59:21;;;;;;;;;23.75;20.50;;;;;3.83;100.00;98808.66;4934734;28;49685;-63